sensor_id;sensor_type;location;lat;lon;timestamp;P1;durP1;ratioP1;P2;durP2;ratioP2
17382;SDS011;8809;51.892;8.384;2023-04-01T00:02:14;2.75;;;1.30;;
17382;SDS011;8809;51.892;8.384;2023-04-01T00:04:44;3.58;;;1.10;;
17382;SDS011;8809;51.892;8.384;2023-04-01T00:07:12;3.50;;;1.30;;
17382;SDS011;8809;51.892;8.384;2023-04-01T00:09:39;1.05;;;0.90;;
17382;SDS011;8809;51.892;8.384;2023-04-01T00:12:06;1.95;;;1.08;;
17382;SDS011;8809;51.892;8.384;2023-04-01T00:14:33;1.10;;;0.80;;
17382;SDS011;8809;51.892;8.384;2023-04-01T00:17:02;1.00;;;0.80;;
17382;SDS011;8809;51.892;8.384;2023-04-01T00:19:31;1.30;;;0.80;;
17382;SDS011;8809;51.892;8.384;2023-04-01T00:21:59;2.15;;;0.95;;
17382;SDS011;8809;51.892;8.384;2023-04-01T00:24:27;1.90;;;0.90;;
17382;SDS011;8809;51.892;8.384;2023-04-01T00:26:54;2.28;;;1.00;;
17382;SDS011;8809;51.892;8.384;2023-04-01T00:29:22;3.38;;;1.10;;
17382;SDS011;8809;51.892;8.384;2023-04-01T00:31:55;2.75;;;1.33;;
17382;SDS011;8809;51.892;8.384;2023-04-01T00:34:22;1.95;;;1.20;;
17382;SDS011;8809;51.892;8.384;2023-04-01T00:36:49;2.75;;;1.10;;
17382;SDS011;8809;51.892;8.384;2023-04-01T00:39:18;2.92;;;1.05;;
17382;SDS011;8809;51.892;8.384;2023-04-01T00:41:46;1.33;;;0.85;;
17382;SDS011;8809;51.892;8.384;2023-04-01T00:44:18;3.83;;;0.82;;
17382;SDS011;8809;51.892;8.384;2023-04-01T00:46:47;1.33;;;0.80;;
17382;SDS011;8809;51.892;8.384;2023-04-01T00:49:14;2.08;;;0.85;;
17382;SDS011;8809;51.892;8.384;2023-04-01T00:51:44;5.07;;;1.10;;
17382;SDS011;8809;51.892;8.384;2023-04-01T00:54:13;1.73;;;1.00;;
17382;SDS011;8809;51.892;8.384;2023-04-01T00:56:45;2.65;;;0.90;;
17382;SDS011;8809;51.892;8.384;2023-04-01T00:59:22;1.67;;;1.10;;
17382;SDS011;8809;51.892;8.384;2023-04-01T01:01:52;0.93;;;0.77;;
17382;SDS011;8809;51.892;8.384;2023-04-01T01:04:22;3.88;;;0.90;;
17382;SDS011;8809;51.892;8.384;2023-04-01T01:06:53;2.38;;;1.05;;
17382;SDS011;8809;51.892;8.384;2023-04-01T01:09:30;1.27;;;0.80;;
17382;SDS011;8809;51.892;8.384;2023-04-01T01:12:07;1.92;;;0.98;;
17382;SDS011;8809;51.892;8.384;2023-04-01T01:14:45;2.25;;;1.02;;
17382;SDS011;8809;51.892;8.384;2023-04-01T01:17:22;2.30;;;1.00;;
17382;SDS011;8809;51.892;8.384;2023-04-01T01:20:06;1.65;;;0.88;;
17382;SDS011;8809;51.892;8.384;2023-04-01T01:26:09;3.50;;;0.93;;
17382;SDS011;8809;51.892;8.384;2023-04-01T01:28:57;2.50;;;0.70;;
17382;SDS011;8809;51.892;8.384;2023-04-01T01:31:33;4.35;;;1.00;;
17382;SDS011;8809;51.892;8.384;2023-04-01T01:34:06;3.03;;;0.70;;
17382;SDS011;8809;51.892;8.384;2023-04-01T01:36:43;2.38;;;0.75;;
17382;SDS011;8809;51.892;8.384;2023-04-01T01:39:14;3.08;;;0.80;;
17382;SDS011;8809;51.892;8.384;2023-04-01T01:41:44;3.63;;;0.90;;
17382;SDS011;8809;51.892;8.384;2023-04-01T01:44:15;1.77;;;0.70;;
17382;SDS011;8809;51.892;8.384;2023-04-01T01:46:43;3.90;;;0.95;;
17382;SDS011;8809;51.892;8.384;2023-04-01T01:49:11;0.85;;;0.77;;
17382;SDS011;8809;51.892;8.384;2023-04-01T01:51:42;1.95;;;0.90;;
17382;SDS011;8809;51.892;8.384;2023-04-01T01:54:11;1.73;;;0.80;;
17382;SDS011;8809;51.892;8.384;2023-04-01T01:56:38;1.95;;;0.90;;
17382;SDS011;8809;51.892;8.384;2023-04-01T01:59:08;3.50;;;0.80;;
17382;SDS011;8809;51.892;8.384;2023-04-01T02:01:37;2.05;;;0.63;;
17382;SDS011;8809;51.892;8.384;2023-04-01T02:04:09;3.67;;;0.60;;
17382;SDS011;8809;51.892;8.384;2023-04-01T02:06:41;2.05;;;0.80;;
17382;SDS011;8809;51.892;8.384;2023-04-01T02:09:13;2.72;;;0.90;;
17382;SDS011;8809;51.892;8.384;2023-04-01T02:11:41;2.97;;;0.90;;
17382;SDS011;8809;51.892;8.384;2023-04-01T02:14:13;1.48;;;0.68;;
17382;SDS011;8809;51.892;8.384;2023-04-01T02:16:44;1.80;;;0.70;;
17382;SDS011;8809;51.892;8.384;2023-04-01T02:19:15;3.08;;;1.10;;
17382;SDS011;8809;51.892;8.384;2023-04-01T02:21:49;1.88;;;0.88;;
17382;SDS011;8809;51.892;8.384;2023-04-01T02:24:19;1.30;;;0.60;;
17382;SDS011;8809;51.892;8.384;2023-04-01T02:26:49;2.42;;;0.85;;
17382;SDS011;8809;51.892;8.384;2023-04-01T02:29:18;3.58;;;0.60;;
17382;SDS011;8809;51.892;8.384;2023-04-01T02:31:47;1.05;;;0.75;;
17382;SDS011;8809;51.892;8.384;2023-04-01T02:34:16;1.15;;;0.80;;
17382;SDS011;8809;51.892;8.384;2023-04-01T02:36:44;1.65;;;0.60;;
17382;SDS011;8809;51.892;8.384;2023-04-01T02:39:13;2.38;;;0.82;;
17382;SDS011;8809;51.892;8.384;2023-04-01T02:41:40;1.42;;;0.60;;
17382;SDS011;8809;51.892;8.384;2023-04-01T02:44:10;2.42;;;0.85;;
17382;SDS011;8809;51.892;8.384;2023-04-01T02:46:38;2.42;;;0.70;;
17382;SDS011;8809;51.892;8.384;2023-04-01T02:49:05;1.25;;;0.60;;
17382;SDS011;8809;51.892;8.384;2023-04-01T02:51:32;3.80;;;0.98;;
17382;SDS011;8809;51.892;8.384;2023-04-01T02:54:00;1.40;;;0.68;;
17382;SDS011;8809;51.892;8.384;2023-04-01T02:56:29;5.30;;;0.80;;
17382;SDS011;8809;51.892;8.384;2023-04-01T02:58:56;0.65;;;0.50;;
17382;SDS011;8809;51.892;8.384;2023-04-01T03:01:23;0.80;;;0.60;;
17382;SDS011;8809;51.892;8.384;2023-04-01T03:03:50;0.60;;;0.60;;
17382;SDS011;8809;51.892;8.384;2023-04-01T03:06:17;0.40;;;0.40;;
17382;SDS011;8809;51.892;8.384;2023-04-01T03:08:44;1.85;;;0.75;;
17382;SDS011;8809;51.892;8.384;2023-04-01T03:11:11;0.93;;;0.70;;
17382;SDS011;8809;51.892;8.384;2023-04-01T03:13:41;1.98;;;0.70;;
17382;SDS011;8809;51.892;8.384;2023-04-01T03:16:08;0.82;;;0.60;;
17382;SDS011;8809;51.892;8.384;2023-04-01T03:18:35;0.85;;;0.75;;
17382;SDS011;8809;51.892;8.384;2023-04-01T03:21:12;0.82;;;0.50;;
17382;SDS011;8809;51.892;8.384;2023-04-01T03:23:41;0.60;;;0.60;;
17382;SDS011;8809;51.892;8.384;2023-04-01T03:26:08;2.63;;;0.80;;
17382;SDS011;8809;51.892;8.384;2023-04-01T03:28:35;0.70;;;0.50;;
17382;SDS011;8809;51.892;8.384;2023-04-01T03:31:03;2.00;;;0.73;;
17382;SDS011;8809;51.892;8.384;2023-04-01T03:33:30;1.30;;;0.60;;
17382;SDS011;8809;51.892;8.384;2023-04-01T03:35:58;3.22;;;0.60;;
17382;SDS011;8809;51.892;8.384;2023-04-01T03:38:26;2.08;;;0.80;;
17382;SDS011;8809;51.892;8.384;2023-04-01T03:40:53;1.35;;;0.73;;
17382;SDS011;8809;51.892;8.384;2023-04-01T03:43:20;2.30;;;0.60;;
17382;SDS011;8809;51.892;8.384;2023-04-01T03:45:48;2.30;;;0.73;;
17382;SDS011;8809;51.892;8.384;2023-04-01T03:48:18;1.17;;;0.80;;
17382;SDS011;8809;51.892;8.384;2023-04-01T03:50:45;0.82;;;0.60;;
17382;SDS011;8809;51.892;8.384;2023-04-01T03:53:13;2.72;;;0.60;;
17382;SDS011;8809;51.892;8.384;2023-04-01T03:55:40;2.67;;;0.85;;
17382;SDS011;8809;51.892;8.384;2023-04-01T03:58:07;0.88;;;0.50;;
17382;SDS011;8809;51.892;8.384;2023-04-01T04:00:35;2.35;;;0.65;;
17382;SDS011;8809;51.892;8.384;2023-04-01T04:03:02;1.50;;;0.60;;
17382;SDS011;8809;51.892;8.384;2023-04-01T04:05:31;0.57;;;0.52;;
17382;SDS011;8809;51.892;8.384;2023-04-01T04:07:58;0.75;;;0.40;;
17382;SDS011;8809;51.892;8.384;2023-04-01T04:10:25;0.82;;;0.60;;
17382;SDS011;8809;51.892;8.384;2023-04-01T04:12:54;0.98;;;0.60;;
17382;SDS011;8809;51.892;8.384;2023-04-01T04:15:22;1.58;;;0.50;;
17382;SDS011;8809;51.892;8.384;2023-04-01T04:17:49;1.38;;;0.70;;
17382;SDS011;8809;51.892;8.384;2023-04-01T04:20:16;1.77;;;0.50;;
17382;SDS011;8809;51.892;8.384;2023-04-01T04:22:45;1.02;;;0.60;;
17382;SDS011;8809;51.892;8.384;2023-04-01T04:25:12;1.75;;;0.50;;
17382;SDS011;8809;51.892;8.384;2023-04-01T04:27:49;1.05;;;0.50;;
17382;SDS011;8809;51.892;8.384;2023-04-01T04:30:16;1.08;;;0.47;;
17382;SDS011;8809;51.892;8.384;2023-04-01T04:32:44;0.43;;;0.43;;
17382;SDS011;8809;51.892;8.384;2023-04-01T04:35:11;0.50;;;0.50;;
17382;SDS011;8809;51.892;8.384;2023-04-01T04:37:38;0.90;;;0.50;;
17382;SDS011;8809;51.892;8.384;2023-04-01T04:40:07;1.65;;;0.70;;
17382;SDS011;8809;51.892;8.384;2023-04-01T04:42:35;2.83;;;0.80;;
17382;SDS011;8809;51.892;8.384;2023-04-01T04:45:02;0.70;;;0.55;;
17382;SDS011;8809;51.892;8.384;2023-04-01T04:47:29;0.50;;;0.50;;
17382;SDS011;8809;51.892;8.384;2023-04-01T04:49:56;1.42;;;0.52;;
17382;SDS011;8809;51.892;8.384;2023-04-01T04:52:24;0.60;;;0.50;;
17382;SDS011;8809;51.892;8.384;2023-04-01T04:54:51;0.50;;;0.50;;
17382;SDS011;8809;51.892;8.384;2023-04-01T04:57:20;2.78;;;0.60;;
17382;SDS011;8809;51.892;8.384;2023-04-01T04:59:47;0.50;;;0.50;;
17382;SDS011;8809;51.892;8.384;2023-04-01T05:02:14;0.88;;;0.50;;
17382;SDS011;8809;51.892;8.384;2023-04-01T05:04:41;0.50;;;0.50;;
17382;SDS011;8809;51.892;8.384;2023-04-01T05:07:10;1.02;;;0.55;;
17382;SDS011;8809;51.892;8.384;2023-04-01T05:09:37;2.47;;;0.60;;
17382;SDS011;8809;51.892;8.384;2023-04-01T05:12:04;1.17;;;0.60;;
17382;SDS011;8809;51.892;8.384;2023-04-01T05:14:32;0.60;;;0.60;;
17382;SDS011;8809;51.892;8.384;2023-04-01T05:16:59;3.70;;;0.73;;
17382;SDS011;8809;51.892;8.384;2023-04-01T05:19:27;1.25;;;0.60;;
17382;SDS011;8809;51.892;8.384;2023-04-01T05:21:54;0.70;;;0.70;;
17382;SDS011;8809;51.892;8.384;2023-04-01T05:24:21;1.95;;;0.80;;
17382;SDS011;8809;51.892;8.384;2023-04-01T05:26:48;0.57;;;0.57;;
17382;SDS011;8809;51.892;8.384;2023-04-01T05:29:15;1.48;;;0.60;;
17382;SDS011;8809;51.892;8.384;2023-04-01T05:31:43;0.70;;;0.70;;
17382;SDS011;8809;51.892;8.384;2023-04-01T05:34:10;2.28;;;0.65;;
17382;SDS011;8809;51.892;8.384;2023-04-01T05:36:37;0.70;;;0.70;;
17382;SDS011;8809;51.892;8.384;2023-04-01T05:39:06;1.00;;;0.63;;
17382;SDS011;8809;51.892;8.384;2023-04-01T05:41:34;1.10;;;0.60;;
17382;SDS011;8809;51.892;8.384;2023-04-01T05:44:01;1.52;;;0.73;;
17382;SDS011;8809;51.892;8.384;2023-04-01T05:46:29;2.90;;;0.65;;
17382;SDS011;8809;51.892;8.384;2023-04-01T05:48:58;1.08;;;0.70;;
17382;SDS011;8809;51.892;8.384;2023-04-01T05:51:25;0.70;;;0.70;;
17382;SDS011;8809;51.892;8.384;2023-04-01T05:53:53;0.60;;;0.60;;
17382;SDS011;8809;51.892;8.384;2023-04-01T05:56:21;1.92;;;0.60;;
17382;SDS011;8809;51.892;8.384;2023-04-01T05:58:50;0.60;;;0.60;;
17382;SDS011;8809;51.892;8.384;2023-04-01T06:01:19;1.85;;;0.60;;
17382;SDS011;8809;51.892;8.384;2023-04-01T06:03:47;0.80;;;0.55;;
17382;SDS011;8809;51.892;8.384;2023-04-01T06:06:16;0.50;;;0.50;;
17382;SDS011;8809;51.892;8.384;2023-04-01T06:08:50;0.57;;;0.57;;
17382;SDS011;8809;51.892;8.384;2023-04-01T06:11:20;1.13;;;0.50;;
17382;SDS011;8809;51.892;8.384;2023-04-01T06:14:03;0.80;;;0.60;;
17382;SDS011;8809;51.892;8.384;2023-04-01T06:16:39;0.70;;;0.60;;
17382;SDS011;8809;51.892;8.384;2023-04-01T06:19:22;2.38;;;0.65;;
17382;SDS011;8809;51.892;8.384;2023-04-01T06:22:04;2.20;;;0.80;;
17382;SDS011;8809;51.892;8.384;2023-04-01T06:24:50;0.80;;;0.80;;
17382;SDS011;8809;51.892;8.384;2023-04-01T06:27:33;1.50;;;0.80;;
17382;SDS011;8809;51.892;8.384;2023-04-01T06:30:19;0.70;;;0.70;;
17382;SDS011;8809;51.892;8.384;2023-04-01T06:33:05;1.10;;;1.00;;
17382;SDS011;8809;51.892;8.384;2023-04-01T06:35:56;1.20;;;0.70;;
17382;SDS011;8809;51.892;8.384;2023-04-01T06:38:39;1.55;;;0.70;;
17382;SDS011;8809;51.892;8.384;2023-04-01T06:41:32;0.57;;;0.57;;
17382;SDS011;8809;51.892;8.384;2023-04-01T06:44:23;0.70;;;0.60;;
17382;SDS011;8809;51.892;8.384;2023-04-01T06:47:01;0.70;;;0.70;;
17382;SDS011;8809;51.892;8.384;2023-04-01T06:49:41;2.38;;;0.88;;
17382;SDS011;8809;51.892;8.384;2023-04-01T06:52:18;1.55;;;0.80;;
17382;SDS011;8809;51.892;8.384;2023-04-01T06:54:52;2.30;;;0.90;;
17382;SDS011;8809;51.892;8.384;2023-04-01T06:57:28;1.60;;;0.60;;
17382;SDS011;8809;51.892;8.384;2023-04-01T07:00:05;1.73;;;0.95;;
17382;SDS011;8809;51.892;8.384;2023-04-01T07:02:41;1.02;;;0.90;;
17382;SDS011;8809;51.892;8.384;2023-04-01T07:05:13;1.40;;;0.80;;
17382;SDS011;8809;51.892;8.384;2023-04-01T07:07:43;1.90;;;0.82;;
17382;SDS011;8809;51.892;8.384;2023-04-01T07:10:17;1.85;;;1.00;;
17382;SDS011;8809;51.892;8.384;2023-04-01T07:12:50;0.90;;;0.70;;
17382;SDS011;8809;51.892;8.384;2023-04-01T07:15:22;0.88;;;0.82;;
17382;SDS011;8809;51.892;8.384;2023-04-01T07:17:53;1.17;;;0.70;;
17382;SDS011;8809;51.892;8.384;2023-04-01T07:20:27;0.88;;;0.88;;
17382;SDS011;8809;51.892;8.384;2023-04-01T07:22:58;1.15;;;0.90;;
17382;SDS011;8809;51.892;8.384;2023-04-01T07:25:29;1.98;;;0.80;;
17382;SDS011;8809;51.892;8.384;2023-04-01T07:28:00;0.85;;;0.85;;
17382;SDS011;8809;51.892;8.384;2023-04-01T07:30:33;0.70;;;0.70;;
17382;SDS011;8809;51.892;8.384;2023-04-01T07:33:12;1.02;;;0.80;;
17382;SDS011;8809;51.892;8.384;2023-04-01T07:35:46;1.83;;;0.90;;
17382;SDS011;8809;51.892;8.384;2023-04-01T07:38:22;1.02;;;0.93;;
17382;SDS011;8809;51.892;8.384;2023-04-01T07:41:01;0.88;;;0.88;;
17382;SDS011;8809;51.892;8.384;2023-04-01T07:43:50;1.35;;;1.20;;
17382;SDS011;8809;51.892;8.384;2023-04-01T07:46:29;0.98;;;0.90;;
17382;SDS011;8809;51.892;8.384;2023-04-01T07:49:08;2.13;;;0.88;;
17382;SDS011;8809;51.892;8.384;2023-04-01T07:51:42;3.30;;;1.40;;
17382;SDS011;8809;51.892;8.384;2023-04-01T07:54:18;1.95;;;1.05;;
17382;SDS011;8809;51.892;8.384;2023-04-01T07:56:55;2.17;;;1.20;;
17382;SDS011;8809;51.892;8.384;2023-04-01T07:59:32;1.23;;;0.90;;
17382;SDS011;8809;51.892;8.384;2023-04-01T08:02:06;1.65;;;1.15;;
17382;SDS011;8809;51.892;8.384;2023-04-01T08:04:46;1.10;;;1.00;;
17382;SDS011;8809;51.892;8.384;2023-04-01T08:07:23;1.35;;;1.00;;
17382;SDS011;8809;51.892;8.384;2023-04-01T08:09:55;1.83;;;1.38;;
17382;SDS011;8809;51.892;8.384;2023-04-01T08:12:40;2.00;;;1.13;;
17382;SDS011;8809;51.892;8.384;2023-04-01T08:15:16;1.20;;;1.10;;
17382;SDS011;8809;51.892;8.384;2023-04-01T08:17:51;1.33;;;1.05;;
17382;SDS011;8809;51.892;8.384;2023-04-01T08:20:33;2.08;;;1.27;;
17382;SDS011;8809;51.892;8.384;2023-04-01T08:23:11;1.70;;;1.27;;
17382;SDS011;8809;51.892;8.384;2023-04-01T08:25:40;1.73;;;1.23;;
17382;SDS011;8809;51.892;8.384;2023-04-01T08:28:16;1.05;;;0.90;;
17382;SDS011;8809;51.892;8.384;2023-04-01T08:30:49;2.25;;;0.90;;
17382;SDS011;8809;51.892;8.384;2023-04-01T08:33:21;1.83;;;1.13;;
17382;SDS011;8809;51.892;8.384;2023-04-01T08:35:53;1.10;;;1.00;;
17382;SDS011;8809;51.892;8.384;2023-04-01T08:38:23;1.45;;;0.93;;
17382;SDS011;8809;51.892;8.384;2023-04-01T08:44:07;2.65;;;0.90;;
17382;SDS011;8809;51.892;8.384;2023-04-01T08:47:03;1.85;;;0.77;;
17382;SDS011;8809;51.892;8.384;2023-04-01T08:49:50;0.93;;;0.90;;
17382;SDS011;8809;51.892;8.384;2023-04-01T08:52:51;1.10;;;1.00;;
17382;SDS011;8809;51.892;8.384;2023-04-01T08:55:35;2.20;;;1.00;;
17382;SDS011;8809;51.892;8.384;2023-04-01T09:01:13;1.15;;;1.00;;
17382;SDS011;8809;51.892;8.384;2023-04-01T09:03:52;1.15;;;1.00;;
17382;SDS011;8809;51.892;8.384;2023-04-01T09:06:33;1.40;;;0.90;;
17382;SDS011;8809;51.892;8.384;2023-04-01T09:09:18;0.80;;;0.80;;
17382;SDS011;8809;51.892;8.384;2023-04-01T09:12:08;0.70;;;0.70;;
17382;SDS011;8809;51.892;8.384;2023-04-01T09:20:42;2.25;;;1.63;;
17382;SDS011;8809;51.892;8.384;2023-04-01T09:23:29;1.10;;;1.00;;
17382;SDS011;8809;51.892;8.384;2023-04-01T09:29:30;1.20;;;1.10;;
17382;SDS011;8809;51.892;8.384;2023-04-01T09:32:17;1.23;;;1.10;;
17382;SDS011;8809;51.892;8.384;2023-04-01T09:35:00;1.50;;;1.40;;
17382;SDS011;8809;51.892;8.384;2023-04-01T09:37:47;2.65;;;1.40;;
17382;SDS011;8809;51.892;8.384;2023-04-01T09:40:22;2.00;;;1.02;;
17382;SDS011;8809;51.892;8.384;2023-04-01T09:43:06;1.13;;;1.10;;
17382;SDS011;8809;51.892;8.384;2023-04-01T09:46:03;1.08;;;0.90;;
17382;SDS011;8809;51.892;8.384;2023-04-01T09:48:43;0.93;;;0.88;;
17382;SDS011;8809;51.892;8.384;2023-04-01T09:51:26;2.65;;;1.10;;
17382;SDS011;8809;51.892;8.384;2023-04-01T09:54:13;0.90;;;0.80;;
17382;SDS011;8809;51.892;8.384;2023-04-01T09:57:31;0.95;;;0.85;;
17382;SDS011;8809;51.892;8.384;2023-04-01T10:00:29;0.95;;;0.88;;
17382;SDS011;8809;51.892;8.384;2023-04-01T10:12:55;1.10;;;1.05;;
17382;SDS011;8809;51.892;8.384;2023-04-01T10:21:47;2.08;;;1.20;;
17382;SDS011;8809;51.892;8.384;2023-04-01T10:24:39;1.02;;;0.98;;
17382;SDS011;8809;51.892;8.384;2023-04-01T10:27:46;1.58;;;1.00;;
17382;SDS011;8809;51.892;8.384;2023-04-01T10:30:34;1.17;;;1.08;;
17382;SDS011;8809;51.892;8.384;2023-04-01T10:33:32;1.00;;;0.90;;
17382;SDS011;8809;51.892;8.384;2023-04-01T10:36:36;1.30;;;1.13;;
17382;SDS011;8809;51.892;8.384;2023-04-01T10:39:19;1.45;;;1.30;;
17382;SDS011;8809;51.892;8.384;2023-04-01T10:42:40;1.30;;;1.20;;
17382;SDS011;8809;51.892;8.384;2023-04-01T10:48:25;2.88;;;1.60;;
17382;SDS011;8809;51.892;8.384;2023-04-01T10:51:10;1.33;;;1.23;;
17382;SDS011;8809;51.892;8.384;2023-04-01T10:54:00;1.65;;;1.10;;
17382;SDS011;8809;51.892;8.384;2023-04-01T10:56:42;3.13;;;1.80;;
17382;SDS011;8809;51.892;8.384;2023-04-01T11:05:59;1.60;;;1.40;;
17382;SDS011;8809;51.892;8.384;2023-04-01T11:09:19;2.40;;;1.42;;
17382;SDS011;8809;51.892;8.384;2023-04-01T11:21:21;3.30;;;1.70;;
17382;SDS011;8809;51.892;8.384;2023-04-01T11:24:19;4.82;;;1.50;;
17382;SDS011;8809;51.892;8.384;2023-04-01T11:26:59;1.40;;;1.30;;
17382;SDS011;8809;51.892;8.384;2023-04-01T11:29:46;2.05;;;1.42;;
17382;SDS011;8809;51.892;8.384;2023-04-01T11:32:42;1.35;;;1.25;;
17382;SDS011;8809;51.892;8.384;2023-04-01T11:35:23;1.20;;;1.10;;
17382;SDS011;8809;51.892;8.384;2023-04-01T11:38:15;2.00;;;1.13;;
17382;SDS011;8809;51.892;8.384;2023-04-01T11:40:52;1.17;;;1.08;;
17382;SDS011;8809;51.892;8.384;2023-04-01T11:43:27;1.25;;;1.10;;
17382;SDS011;8809;51.892;8.384;2023-04-01T11:46:02;1.10;;;0.90;;
17382;SDS011;8809;51.892;8.384;2023-04-01T11:48:38;1.48;;;0.90;;
17382;SDS011;8809;51.892;8.384;2023-04-01T11:51:22;1.20;;;1.00;;
17382;SDS011;8809;51.892;8.384;2023-04-01T11:54:10;1.40;;;1.30;;
17382;SDS011;8809;51.892;8.384;2023-04-01T11:56:53;3.80;;;1.20;;
17382;SDS011;8809;51.892;8.384;2023-04-01T11:59:40;1.02;;;0.93;;
17382;SDS011;8809;51.892;8.384;2023-04-01T12:02:19;1.15;;;1.05;;
17382;SDS011;8809;51.892;8.384;2023-04-01T12:04:58;1.15;;;1.00;;
17382;SDS011;8809;51.892;8.384;2023-04-01T12:07:48;1.50;;;1.05;;
17382;SDS011;8809;51.892;8.384;2023-04-01T12:10:26;1.10;;;1.00;;
17382;SDS011;8809;51.892;8.384;2023-04-01T12:13:03;1.40;;;1.30;;
17382;SDS011;8809;51.892;8.384;2023-04-01T12:15:42;1.77;;;1.67;;
17382;SDS011;8809;51.892;8.384;2023-04-01T12:18:30;1.88;;;1.73;;
17382;SDS011;8809;51.892;8.384;2023-04-01T12:21:08;1.70;;;1.60;;
17382;SDS011;8809;51.892;8.384;2023-04-01T12:23:55;1.60;;;1.50;;
17382;SDS011;8809;51.892;8.384;2023-04-01T12:26:43;2.15;;;1.50;;
17382;SDS011;8809;51.892;8.384;2023-04-01T12:32:23;2.92;;;1.80;;
17382;SDS011;8809;51.892;8.384;2023-04-01T12:35:04;1.73;;;1.63;;
17382;SDS011;8809;51.892;8.384;2023-04-01T12:37:45;2.30;;;1.77;;
17382;SDS011;8809;51.892;8.384;2023-04-01T12:40:28;2.08;;;1.70;;
17382;SDS011;8809;51.892;8.384;2023-04-01T12:46:24;2.33;;;2.13;;
17382;SDS011;8809;51.892;8.384;2023-04-01T12:49:05;2.50;;;2.05;;
17382;SDS011;8809;51.892;8.384;2023-04-01T12:51:50;2.15;;;1.95;;
17382;SDS011;8809;51.892;8.384;2023-04-01T13:00:27;2.60;;;2.40;;
17382;SDS011;8809;51.892;8.384;2023-04-01T13:03:15;2.58;;;2.30;;
17382;SDS011;8809;51.892;8.384;2023-04-01T13:08:58;3.53;;;2.95;;
17382;SDS011;8809;51.892;8.384;2023-04-01T13:11:36;3.00;;;2.72;;
17382;SDS011;8809;51.892;8.384;2023-04-01T13:17:20;2.42;;;2.22;;
17382;SDS011;8809;51.892;8.384;2023-04-01T13:19:56;3.70;;;2.67;;
17382;SDS011;8809;51.892;8.384;2023-04-01T13:22:34;3.45;;;3.05;;
17382;SDS011;8809;51.892;8.384;2023-04-01T13:25:14;3.00;;;2.70;;
17382;SDS011;8809;51.892;8.384;2023-04-01T13:27:50;4.65;;;2.92;;
17382;SDS011;8809;51.892;8.384;2023-04-01T13:30:25;3.10;;;2.80;;
17382;SDS011;8809;51.892;8.384;2023-04-01T13:32:58;3.10;;;2.80;;
17382;SDS011;8809;51.892;8.384;2023-04-01T13:35:34;3.30;;;3.00;;
17382;SDS011;8809;51.892;8.384;2023-04-01T13:38:12;3.83;;;3.42;;
17382;SDS011;8809;51.892;8.384;2023-04-01T13:40:55;2.53;;;2.33;;
17382;SDS011;8809;51.892;8.384;2023-04-01T13:43:30;3.20;;;2.90;;
17382;SDS011;8809;51.892;8.384;2023-04-01T13:52:10;4.65;;;3.13;;
17382;SDS011;8809;51.892;8.384;2023-04-01T13:54:56;3.55;;;3.05;;
17382;SDS011;8809;51.892;8.384;2023-04-01T13:57:43;3.25;;;2.95;;
17382;SDS011;8809;51.892;8.384;2023-04-01T14:00:25;3.00;;;2.70;;
17382;SDS011;8809;51.892;8.384;2023-04-01T14:09:16;2.97;;;2.67;;
17382;SDS011;8809;51.892;8.384;2023-04-01T14:12:05;3.58;;;3.25;;
17382;SDS011;8809;51.892;8.384;2023-04-01T14:14:46;4.53;;;3.78;;
17382;SDS011;8809;51.892;8.384;2023-04-01T14:17:31;3.80;;;3.42;;
17382;SDS011;8809;51.892;8.384;2023-04-01T14:20:20;3.40;;;3.10;;
17382;SDS011;8809;51.892;8.384;2023-04-01T14:22:58;3.35;;;3.05;;
17382;SDS011;8809;51.892;8.384;2023-04-01T14:25:52;3.20;;;2.63;;
17382;SDS011;8809;51.892;8.384;2023-04-01T14:28:31;3.03;;;2.70;;
17382;SDS011;8809;51.892;8.384;2023-04-01T14:34:06;3.50;;;3.10;;
17382;SDS011;8809;51.892;8.384;2023-04-01T14:36:48;4.50;;;3.80;;
17382;SDS011;8809;51.892;8.384;2023-04-01T14:39:29;3.50;;;2.92;;
17382;SDS011;8809;51.892;8.384;2023-04-01T14:42:20;3.40;;;3.10;;
17382;SDS011;8809;51.892;8.384;2023-04-01T14:45:12;2.80;;;2.60;;
17382;SDS011;8809;51.892;8.384;2023-04-01T14:48:07;3.20;;;2.72;;
17382;SDS011;8809;51.892;8.384;2023-04-01T14:50:44;2.88;;;2.65;;
17382;SDS011;8809;51.892;8.384;2023-04-01T14:53:16;2.95;;;2.70;;
17382;SDS011;8809;51.892;8.384;2023-04-01T14:55:54;2.85;;;2.65;;
17382;SDS011;8809;51.892;8.384;2023-04-01T14:58:24;4.97;;;3.40;;
17382;SDS011;8809;51.892;8.384;2023-04-01T15:01:07;2.63;;;2.42;;
17382;SDS011;8809;51.892;8.384;2023-04-01T15:03:48;3.10;;;2.80;;
17382;SDS011;8809;51.892;8.384;2023-04-01T15:09:27;2.10;;;1.90;;
17382;SDS011;8809;51.892;8.384;2023-04-01T15:12:07;2.90;;;2.03;;
17382;SDS011;8809;51.892;8.384;2023-04-01T15:14:47;2.03;;;1.90;;
17382;SDS011;8809;51.892;8.384;2023-04-01T15:17:29;2.40;;;2.20;;
17382;SDS011;8809;51.892;8.384;2023-04-01T15:20:21;2.35;;;2.13;;
17382;SDS011;8809;51.892;8.384;2023-04-01T15:23:06;1.80;;;1.70;;
17382;SDS011;8809;51.892;8.384;2023-04-01T15:25:45;2.28;;;1.92;;
17382;SDS011;8809;51.892;8.384;2023-04-01T15:28:23;2.63;;;2.03;;
17382;SDS011;8809;51.892;8.384;2023-04-01T15:31:02;2.28;;;1.60;;
17382;SDS011;8809;51.892;8.384;2023-04-01T15:33:46;1.92;;;1.70;;
17382;SDS011;8809;51.892;8.384;2023-04-01T15:36:29;1.70;;;1.60;;
17382;SDS011;8809;51.892;8.384;2023-04-01T15:39:05;1.77;;;1.60;;
17382;SDS011;8809;51.892;8.384;2023-04-01T15:41:42;1.85;;;1.75;;
17382;SDS011;8809;51.892;8.384;2023-04-01T15:44:36;1.50;;;1.40;;
17382;SDS011;8809;51.892;8.384;2023-04-01T15:47:27;1.73;;;1.60;;
17382;SDS011;8809;51.892;8.384;2023-04-01T15:50:07;2.30;;;1.42;;
17382;SDS011;8809;51.892;8.384;2023-04-01T15:52:56;2.55;;;1.55;;
17382;SDS011;8809;51.892;8.384;2023-04-01T15:55:36;1.58;;;1.35;;
17382;SDS011;8809;51.892;8.384;2023-04-01T15:58:17;3.47;;;3.17;;
17382;SDS011;8809;51.892;8.384;2023-04-01T16:00:56;4.05;;;3.42;;
17382;SDS011;8809;51.892;8.384;2023-04-01T16:03:34;2.72;;;2.40;;
17382;SDS011;8809;51.892;8.384;2023-04-01T16:12:24;3.25;;;2.95;;
17382;SDS011;8809;51.892;8.384;2023-04-01T16:15:08;3.35;;;2.83;;
17382;SDS011;8809;51.892;8.384;2023-04-01T16:17:54;3.78;;;2.80;;
17382;SDS011;8809;51.892;8.384;2023-04-01T16:20:42;2.47;;;2.28;;
17382;SDS011;8809;51.892;8.384;2023-04-01T16:23:14;2.70;;;2.50;;
17382;SDS011;8809;51.892;8.384;2023-04-01T16:25:51;2.13;;;1.92;;
17382;SDS011;8809;51.892;8.384;2023-04-01T16:28:27;1.92;;;1.75;;
17382;SDS011;8809;51.892;8.384;2023-04-01T16:30:58;2.13;;;1.70;;
17382;SDS011;8809;51.892;8.384;2023-04-01T16:33:32;3.00;;;2.00;;
17382;SDS011;8809;51.892;8.384;2023-04-01T16:36:10;3.33;;;1.90;;
17382;SDS011;8809;51.892;8.384;2023-04-01T16:38:48;2.42;;;1.98;;
17382;SDS011;8809;51.892;8.384;2023-04-01T16:41:20;3.15;;;1.88;;
17382;SDS011;8809;51.892;8.384;2023-04-01T16:43:53;2.00;;;1.80;;
17382;SDS011;8809;51.892;8.384;2023-04-01T16:46:31;2.20;;;1.77;;
17382;SDS011;8809;51.892;8.384;2023-04-01T16:49:03;3.50;;;2.00;;
17382;SDS011;8809;51.892;8.384;2023-04-01T16:51:46;4.40;;;2.35;;
17382;SDS011;8809;51.892;8.384;2023-04-01T16:54:26;3.05;;;2.13;;
17382;SDS011;8809;51.892;8.384;2023-04-01T16:57:02;2.40;;;1.85;;
17382;SDS011;8809;51.892;8.384;2023-04-01T16:59:34;3.10;;;1.98;;
17382;SDS011;8809;51.892;8.384;2023-04-01T17:02:04;3.75;;;2.20;;
17382;SDS011;8809;51.892;8.384;2023-04-01T17:04:38;2.22;;;2.03;;
17382;SDS011;8809;51.892;8.384;2023-04-01T17:07:14;3.10;;;2.25;;
17382;SDS011;8809;51.892;8.384;2023-04-01T17:09:57;1.92;;;1.75;;
17382;SDS011;8809;51.892;8.384;2023-04-01T17:12:33;3.03;;;2.00;;
17382;SDS011;8809;51.892;8.384;2023-04-01T17:15:12;3.95;;;1.95;;
17382;SDS011;8809;51.892;8.384;2023-04-01T17:17:49;3.33;;;2.20;;
17382;SDS011;8809;51.892;8.384;2023-04-01T17:20:35;4.13;;;2.38;;
17382;SDS011;8809;51.892;8.384;2023-04-01T17:23:19;2.85;;;2.35;;
17382;SDS011;8809;51.892;8.384;2023-04-01T17:25:53;4.15;;;2.30;;
17382;SDS011;8809;51.892;8.384;2023-04-01T17:28:33;4.05;;;2.58;;
17382;SDS011;8809;51.892;8.384;2023-04-01T17:31:10;5.50;;;2.97;;
17382;SDS011;8809;51.892;8.384;2023-04-01T17:33:51;8.60;;;3.08;;